Time;durP1;ratioP1;P1;durP2;ratioP2;P2;SDS_P1;SDS_P2;PMS_P1;PMS_P2;Temp;Humidity;BMP_temperature;BMP_pressure;BME280_temperature;BME280_humidity;BME280_pressure;Samples;Min_cycle;Max_cycle;Signal;HPM_P1;HPM_P2
2022/07/22 00:01:48;;;;;;;8.48;4.20;;;26.40;56.00;;;;;;6136799;28;82184;-75
2022/07/22 00:04:48;;;;;;;7.25;3.88;;;26.50;56.10;;;;;;6135973;28;80727;-75
2022/07/22 00:07:49;;;;;;;10.68;4.32;;;26.40;56.10;;;;;;6136039;28;80601;-74
2022/07/22 00:10:49;;;;;;;7.95;4.38;;;26.40;56.40;;;;;;6155140;28;81280;-74
2022/07/22 00:13:50;;;;;;;7.68;4.47;;;26.40;56.70;;;;;;6142545;28;82161;-73
2022/07/22 00:16:50;;;;;;;5.68;3.95;;;26.30;56.80;;;;;;6139789;28;80543;-73
2022/07/22 00:19:51;;;;;;;7.97;4.65;;;26.30;57.00;;;;;;6135397;28;80170;-74
2022/07/22 00:22:51;;;;;;;12.60;4.28;;;26.30;57.10;;;;;;6136810;28;81266;-74
2022/07/22 00:25:53;;;;;;;10.52;4.55;;;26.20;57.00;;;;;;6136268;28;80410;-73
2022/07/22 00:28:54;;;;;;;5.95;4.50;;;26.30;57.00;;;;;;6136281;28;80150;-74
2022/07/22 00:31:54;;;;;;;6.80;4.13;;;26.30;56.90;;;;;;6134040;28;83407;-74
2022/07/22 00:34:55;;;;;;;8.15;4.82;;;26.30;57.10;;;;;;6141088;28;80799;-73
2022/07/22 00:37:55;;;;;;;9.65;4.57;;;26.30;57.00;;;;;;6135688;28;81675;-75
2022/07/22 00:40:56;;;;;;;6.97;3.53;;;26.30;56.80;;;;;;6140768;28;79968;-74
2022/07/22 00:43:56;;;;;;;9.95;4.25;;;26.30;56.70;;;;;;6136065;28;80842;-74
2022/07/22 00:46:57;;;;;;;14.35;4.28;;;26.30;56.70;;;;;;6134847;28;80447;-75
2022/07/22 00:49:57;;;;;;;7.22;4.15;;;26.30;56.60;;;;;;6140790;28;80969;-76
2022/07/22 00:52:58;;;;;;;9.82;4.53;;;26.30;56.80;;;;;;6136119;28;80306;-76
2022/07/22 00:55:58;;;;;;;11.38;4.88;;;26.30;56.90;;;;;;6136145;28;80301;-76
2022/07/22 00:58:59;;;;;;;12.90;4.25;;;26.30;56.80;;;;;;6136670;28;82093;-76
2022/07/22 01:01:59;;;;;;;6.70;4.07;;;26.30;56.80;;;;;;6141930;28;81418;-75
2022/07/22 01:05:00;;;;;;;8.02;4.25;;;26.20;56.70;;;;;;6147567;28;80478;-77
2022/07/22 01:08:00;;;;;;;8.65;4.00;;;26.10;56.90;;;;;;6142222;28;80545;-77
2022/07/22 01:11:01;;;;;;;6.18;3.65;;;26.10;57.20;;;;;;6150910;28;80021;-74
2022/07/22 01:14:01;;;;;;;10.65;4.25;;;26.10;57.10;;;;;;6148513;28;87488;-74
2022/07/22 01:17:02;;;;;;;6.35;3.80;;;26.10;57.00;;;;;;6120216;28;81630;-73
2022/07/22 01:20:03;;;;;;;9.70;4.15;;;26.10;57.20;;;;;;6146693;28;81537;-73
2022/07/22 01:23:03;;;;;;;7.72;3.95;;;26.00;57.10;;;;;;6141911;28;82152;-73
2022/07/22 01:26:04;;;;;;;9.23;4.57;;;26.10;57.20;;;;;;6137698;28;82979;-72
2022/07/22 01:29:04;;;;;;;5.38;3.67;;;26.10;57.20;;;;;;6138076;28;83715;-73
2022/07/22 01:32:05;;;;;;;7.80;4.15;;;26.10;57.10;;;;;;6138783;28;80350;-72
2022/07/22 01:35:05;;;;;;;6.45;4.13;;;26.20;57.00;;;;;;6139060;28;80724;-72
2022/07/22 01:38:06;;;;;;;11.60;4.78;;;26.20;56.80;;;;;;6136658;28;83148;-73
2022/07/22 01:41:07;;;;;;;6.80;3.80;;;26.20;56.70;;;;;;6137645;28;82427;-74
2022/07/22 01:44:07;;;;;;;6.40;4.25;;;26.20;56.50;;;;;;6145514;28;83223;-74
2022/07/22 01:47:08;;;;;;;5.82;4.00;;;26.20;56.60;;;;;;6139056;28;80455;-75
2022/07/22 01:50:08;;;;;;;7.38;4.38;;;26.20;56.50;;;;;;6137346;28;82124;-73
2022/07/22 01:53:09;;;;;;;8.80;4.78;;;26.10;56.50;;;;;;6128591;28;81755;-74
2022/07/22 01:56:09;;;;;;;9.23;4.68;;;25.90;56.90;;;;;;6128149;28;82702;-73
2022/07/22 01:59:18;;;;;;;11.48;4.43;;;25.90;57.10;;;;;;6137529;28;82945;-73
2022/07/22 02:02:19;;;;;;;8.65;4.10;;;26.00;57.10;;;;;;6137088;28;82768;-73
2022/07/22 02:05:21;;;;;;;10.38;3.95;;;25.90;57.00;;;;;;6143737;28;81450;-73
2022/07/22 02:08:21;;;;;;;12.27;4.07;;;25.80;57.00;;;;;;6137278;28;83526;-75
2022/07/22 02:11:45;;;;;;;10.77;4.28;;;25.70;57.40;;;;;;6113280;28;81439;-74
2022/07/22 02:14:49;;;;;;;7.30;4.18;;;25.80;57.30;;;;;;6135318;28;83334;-74
2022/07/22 02:17:49;;;;;;;9.10;4.00;;;25.80;57.20;;;;;;6137375;28;83273;-74
2022/07/22 02:20:50;;;;;;;9.68;4.72;;;25.90;57.30;;;;;;6141952;28;82989;-75
2022/07/22 02:23:50;;;;;;;9.27;4.78;;;25.90;57.30;;;;;;6134110;28;83228;-75
2022/07/22 02:26:51;;;;;;;7.60;3.72;;;25.90;57.10;;;;;;6141123;28;82817;-76
2022/07/22 02:29:51;;;;;;;6.93;4.53;;;25.90;57.20;;;;;;6118711;28;82709;-76
2022/07/22 02:32:52;;;;;;;6.97;4.55;;;25.90;57.20;;;;;;6137432;28;81160;-76
2022/07/22 02:35:52;;;;;;;10.55;4.45;;;25.80;57.20;;;;;;6136616;28;82794;-74
2022/07/22 02:38:53;;;;;;;9.18;4.38;;;25.90;57.20;;;;;;6141864;28;82064;-74
2022/07/22 02:41:54;;;;;;;8.05;4.60;;;25.90;57.10;;;;;;6149384;28;82199;-74
2022/07/22 02:44:55;;;;;;;15.57;4.93;;;26.00;57.00;;;;;;6127995;28;82929;-74
2022/07/22 02:47:55;;;;;;;6.50;4.05;;;26.00;56.90;;;;;;6111371;28;83318;-75
2022/07/22 02:50:57;;;;;;;6.53;4.03;;;25.90;56.80;;;;;;6115987;28;82412;-74
2022/07/22 02:54:01;;;;;;;9.35;4.32;;;25.70;57.30;;;;;;6136187;28;83126;-75
2022/07/22 02:57:02;;;;;;;6.75;4.32;;;25.60;57.30;;;;;;6136706;28;82128;-76
2022/07/22 03:00:02;;;;;;;6.80;4.30;;;25.70;57.30;;;;;;6152242;28;87396;-69
2022/07/22 03:03:06;;;;;;;7.47;4.10;;;25.70;57.20;;;;;;6135875;28;81612;-74
2022/07/22 03:06:08;;;;;;;5.68;3.90;;;25.80;57.10;;;;;;6137887;28;80140;-73
2022/07/22 03:09:16;;;;;;;11.40;4.95;;;25.80;57.00;;;;;;6152346;28;82970;-74
2022/07/22 03:12:18;;;;;;;9.75;4.40;;;25.90;57.10;;;;;;6136220;28;83545;-75
2022/07/22 03:15:19;;;;;;;10.90;4.82;;;25.90;56.90;;;;;;6136382;28;83501;-75
2022/07/22 03:18:19;;;;;;;10.43;4.88;;;25.90;56.90;;;;;;6137304;28;81017;-76
2022/07/22 03:21:22;;;;;;;6.60;4.45;;;25.90;57.00;;;;;;6137074;28;81540;-75
2022/07/22 03:24:23;;;;;;;12.07;5.07;;;25.90;57.00;;;;;;6151930;28;82752;-71
2022/07/22 03:27:24;;;;;;;13.80;5.63;;;25.80;57.20;;;;;;6147238;28;81697;-72
2022/07/22 03:30:24;;;;;;;11.77;5.88;;;25.70;57.40;;;;;;6151752;28;83698;-74
2022/07/22 03:33:25;;;;;;;8.90;5.03;;;25.70;57.50;;;;;;6149376;28;80610;-73
2022/07/22 03:36:26;;;;;;;11.77;5.13;;;25.80;57.40;;;;;;6152056;28;80306;-71
2022/07/22 03:39:27;;;;;;;10.75;6.38;;;25.90;57.50;;;;;;6146061;28;82025;-73
2022/07/22 03:42:27;;;;;;;10.30;5.75;;;25.80;57.60;;;;;;6150441;28;80637;-71
2022/07/22 03:45:28;;;;;;;11.55;6.25;;;25.90;57.80;;;;;;6138615;28;82285;-67
2022/07/22 03:48:28;;;;;;;12.43;6.15;;;25.90;57.60;;;;;;6131040;28;82994;-67
2022/07/22 03:51:29;;;;;;;8.18;5.35;;;25.80;57.90;;;;;;6134330;28;82970;-67
2022/07/22 03:54:30;;;;;;;13.35;7.30;;;25.80;58.00;;;;;;6140609;28;83344;-73
2022/07/22 03:57:30;;;;;;;13.98;7.25;;;25.80;58.10;;;;;;6143115;28;81830;-66
2022/07/22 04:00:37;;;;;;;10.15;6.72;;;25.80;58.30;;;;;;6132388;28;83081;-65
2022/07/22 04:03:40;;;;;;;19.95;6.63;;;25.80;58.70;;;;;;6139364;28;83390;-65
2022/07/22 04:06:53;;;;;;;11.77;6.70;;;25.90;58.40;;;;;;6137693;28;80470;-64
2022/07/22 04:10:05;;;;;;;13.52;6.97;;;25.90;58.40;;;;;;6134329;28;82743;-64
2022/07/22 04:13:07;;;;;;;14.82;6.75;;;26.00;58.30;;;;;;6134073;28;81570;-64
2022/07/22 04:16:22;;;;;;;12.32;6.50;;;26.00;58.40;;;;;;6149753;28;87470;-73
2022/07/22 04:19:31;;;;;;;12.07;6.88;;;26.00;58.70;;;;;;6150540;28;82970;-74
2022/07/22 04:22:33;;;;;;;13.25;7.47;;;26.00;58.50;;;;;;6133642;28;82162;-65
2022/07/22 04:25:34;;;;;;;19.15;7.40;;;26.00;58.70;;;;;;6150393;28;82161;-66
2022/07/22 04:28:35;;;;;;;15.90;7.15;;;26.10;58.90;;;;;;6133653;28;82916;-65
2022/07/22 04:31:35;;;;;;;13.73;7.55;;;26.00;58.90;;;;;;6137573;28;83163;-71
2022/07/22 04:34:41;;;;;;;;;;;26.00;59.20;;;;;;6138386;28;82854;-66
2022/07/22 04:37:42;;;;;;;10.05;7.00;;;26.00;59.50;;;;;;6139887;28;81855;-76
2022/07/22 04:40:43;;;;;;;15.68;7.15;;;26.00;59.50;;;;;;6133642;28;80693;-76
2022/07/22 04:43:44;;;;;;;15.05;7.07;;;26.00;59.60;;;;;;6133631;28;82905;-66
2022/07/22 04:46:44;;;;;;;11.95;7.10;;;26.10;59.90;;;;;;6135150;28;80619;-66
2022/07/22 04:49:45;;;;;;;15.68;7.80;;;26.10;59.80;;;;;;6144030;28;82232;-66
2022/07/22 04:52:46;;;;;;;15.57;7.13;;;26.10;60.10;;;;;;6133509;28;83003;-73
2022/07/22 04:55:47;;;;;;;16.65;6.38;;;26.00;60.50;;;;;;6132970;28;83355;-65
2022/07/22 04:58:48;;;;;;;21.08;7.65;;;26.00;60.60;;;;;;6131548;28;81289;-66
2022/07/22 05:01:49;;;;;;;18.67;7.13;;;26.10;60.90;;;;;;6132801;28;82007;-66
2022/07/22 05:04:49;;;;;;;16.58;6.72;;;26.10;60.90;;;;;;6128918;28;83265;-66
2022/07/22 05:07:50;;;;;;;14.70;7.40;;;26.10;61.00;;;;;;6133910;28;80462;-66
2022/07/22 05:10:50;;;;;;;15.23;6.57;;;26.10;61.10;;;;;;6136838;28;82361;-66
2022/07/22 05:13:52;;;;;;;21.92;7.20;;;26.10;61.10;;;;;;6152726;28;83213;-66
2022/07/22 05:16:52;;;;;;;16.40;8.30;;;26.10;61.10;;;;;;6132517;28;82556;-66
2022/07/22 05:19:53;;;;;;;15.60;8.05;;;26.10;61.30;;;;;;6132446;28;81995;-67
2022/07/22 05:22:54;;;;;;;18.42;8.57;;;26.10;61.50;;;;;;6132171;28;83149;-67
2022/07/22 05:25:58;;;;;;;14.20;7.72;;;26.10;61.70;;;;;;6131706;28;83361;-67
2022/07/22 05:28:59;;;;;;;16.55;7.10;;;26.10;61.90;;;;;;6128830;28;82852;-66
2022/07/22 05:32:01;;;;;;;13.23;7.90;;;26.10;62.20;;;;;;6132303;28;82741;-70
2022/07/22 05:35:02;;;;;;;12.68;6.50;;;26.10;62.40;;;;;;6132257;28;83056;-70
2022/07/22 05:38:03;;;;;;;15.55;7.57;;;26.10;62.60;;;;;;6114703;28;83254;-69
2022/07/22 05:41:03;;;;;;;24.73;14.13;;;26.10;63.10;;;;;;6143749;28;83321;-69
2022/07/22 05:44:05;;;;;;;42.38;26.50;;;26.10;63.30;;;;;;6127730;28;83304;-69
2022/07/22 05:47:05;;;;;;;50.63;32.08;;;26.10;63.50;;;;;;6108248;28;85439;-69
2022/07/22 05:50:06;;;;;;;38.45;23.08;;;26.10;63.60;;;;;;6125426;28;85706;-68
2022/07/22 05:53:09;;;;;;;30.00;15.35;;;26.10;63.70;;;;;;6133072;28;85539;-67
2022/07/22 05:56:11;;;;;;;68.63;48.50;;;26.10;63.40;;;;;;6133486;28;84556;-68
2022/07/22 05:59:11;;;;;;;52.63;33.95;;;26.10;63.40;;;;;;6130640;28;85757;-68
2022/07/22 06:02:12;;;;;;;33.60;18.05;;;26.10;63.20;;;;;;6142786;28;86285;-67
2022/07/22 06:05:16;;;;;;;20.85;13.23;;;26.10;63.30;;;;;;6131268;28;85847;-68
2022/07/22 06:08:16;;;;;;;17.38;10.55;;;26.10;63.40;;;;;;6139054;28;84047;-68
2022/07/22 06:11:21;;;;;;;15.02;8.43;;;26.10;63.50;;;;;;6126945;28;84923;-67
2022/07/22 06:14:22;;;;;;;13.10;7.80;;;26.10;63.60;;;;;;6129797;28;85319;-67
2022/07/22 06:17:22;;;;;;;13.35;7.78;;;26.10;63.60;;;;;;6124560;28;80218;-67
2022/07/22 06:20:23;;;;;;;16.00;8.20;;;26.00;63.60;;;;;;6131737;28;82567;-67
2022/07/22 06:23:24;;;;;;;9.55;6.60;;;26.00;63.60;;;;;;6129086;28;82883;-67
2022/07/22 06:26:24;;;;;;;12.20;8.07;;;26.00;63.50;;;;;;6130591;28;82536;-68
2022/07/22 06:29:25;;;;;;;17.65;8.25;;;26.10;63.40;;;;;;6138369;28;81774;-67
2022/07/22 06:32:25;;;;;;;13.32;7.65;;;26.10;63.30;;;;;;6134333;28;85272;-67
2022/07/22 06:35:26;;;;;;;14.00;8.00;;;26.10;63.30;;;;;;6134426;28;82433;-67
2022/07/22 06:38:27;;;;;;;20.30;7.78;;;26.10;63.40;;;;;;6134412;28;82971;-68
2022/07/22 06:41:50;;;;;;;19.63;8.07;;;26.10;63.40;;;;;;6132916;28;81167;-67
2022/07/22 06:45:13;;;;;;;18.77;8.82;;;26.10;63.10;;;;;;6121042;28;85012;-68
2022/07/22 06:48:32;;;;;;;17.27;8.95;;;26.10;62.70;;;;;;6134266;28;82969;-67
2022/07/22 06:51:33;;;;;;;11.57;7.95;;;26.20;62.60;;;;;;6131138;28;81342;-67
2022/07/22 06:54:33;;;;;;;17.83;9.23;;;26.10;62.60;;;;;;6133353;28;80540;-68
2022/07/22 06:57:36;;;;;;;15.25;8.25;;;26.20;62.50;;;;;;6123576;28;83259;-67
2022/07/22 07:00:37;;;;;;;15.50;7.63;;;26.20;62.50;;;;;;6134573;28;81763;-67
2022/07/22 07:03:55;;;;;;;15.57;8.25;;;26.20;62.30;;;;;;6133547;28;80713;-67
2022/07/22 07:06:55;;;;;;;13.57;8.65;;;26.20;62.10;;;;;;6132853;28;83310;-67
2022/07/22 07:10:15;;;;;;;13.13;8.02;;;26.20;62.00;;;;;;6127090;28;82980;-67
2022/07/22 07:13:24;;;;;;;12.70;7.60;;;26.30;61.90;;;;;;6131271;28;82092;-67
2022/07/22 07:16:25;;;;;;;13.98;8.02;;;26.30;62.00;;;;;;6133857;28;81250;-66
2022/07/22 07:19:26;;;;;;;10.35;8.05;;;26.40;62.10;;;;;;6134816;28;82541;-72
2022/07/22 07:22:26;;;;;;;19.88;8.63;;;26.40;62.30;;;;;;6149110;28;82078;-66
2022/07/22 07:25:27;;;;;;;18.50;8.93;;;26.40;62.30;;;;;;6131053;28;82810;-66
2022/07/22 07:28:29;;;;;;;15.73;9.48;;;26.40;62.10;;;;;;6133362;28;87612;-67
2022/07/22 07:31:33;;;;;;;18.55;11.30;;;26.40;61.80;;;;;;6133498;28;83084;-67
2022/07/22 07:34:38;;;;;;;23.75;11.00;;;26.40;61.60;;;;;;6145353;28;83049;-67
2022/07/22 07:37:39;;;;;;;20.20;9.65;;;26.50;61.70;;;;;;6129788;28;85890;-66
2022/07/22 07:40:39;;;;;;;15.77;9.05;;;26.50;61.60;;;;;;6132512;28;86109;-67
2022/07/22 07:43:40;;;;;;;18.40;9.02;;;26.60;61.70;;;;;;6131002;28;81799;-66
2022/07/22 07:46:40;;;;;;;18.83;9.30;;;26.60;61.60;;;;;;6133308;28;83311;-66
2022/07/22 07:49:41;;;;;;;13.25;8.95;;;26.70;62.10;;;;;;6134328;28;80118;-66
2022/07/22 07:52:41;;;;;;;12.85;8.77;;;26.70;61.80;;;;;;6132901;28;83197;-67
2022/07/22 07:55:42;;;;;;;16.70;10.20;;;26.70;61.70;;;;;;6133128;28;82009;-66
2022/07/22 07:58:43;;;;;;;13.35;8.73;;;26.80;61.70;;;;;;6130070;28;83171;-66
2022/07/22 08:01:43;;;;;;;10.95;8.57;;;26.80;61.50;;;;;;6132648;28;85482;-63
2022/07/22 08:04:44;;;;;;;16.88;8.85;;;26.80;61.40;;;;;;6134684;28;84248;-63
2022/07/22 08:07:49;;;;;;;13.63;9.00;;;26.70;61.90;;;;;;6120082;28;81904;-63
2022/07/22 08:10:50;;;;;;;15.13;8.52;;;26.80;61.80;;;;;;6127852;28;83101;-63
2022/07/22 08:14:06;;;;;;;14.38;9.75;;;26.80;62.00;;;;;;6134651;28;80306;-63
2022/07/22 08:17:20;;;;;;;10.23;8.00;;;26.80;62.00;;;;;;6131571;28;84407;-64
2022/07/22 08:20:20;;;;;;;15.90;9.57;;;26.80;62.10;;;;;;6143859;28;83328;-64
2022/07/22 08:23:21;;;;;;;13.68;9.02;;;26.90;62.00;;;;;;6144328;28;80549;-64
2022/07/22 08:26:21;;;;;;;21.75;8.93;;;26.90;61.80;;;;;;6144836;28;82277;-63
2022/07/22 08:29:22;;;;;;;12.63;9.38;;;26.90;62.30;;;;;;6133384;28;83076;-64
2022/07/22 08:32:23;;;;;;;14.45;8.48;;;26.90;62.00;;;;;;6132222;28;82390;-65
2022/07/22 08:35:24;;;;;;;13.10;8.77;;;27.00;61.90;;;;;;6135971;28;83016;-64
2022/07/22 08:38:24;;;;;;;14.75;8.15;;;27.00;62.60;;;;;;6130005;28;83326;-64
2022/07/22 08:41:25;;;;;;;14.13;9.43;;;27.00;62.60;;;;;;6117164;28;82706;-64
2022/07/22 08:44:26;;;;;;;17.13;9.60;;;27.10;62.20;;;;;;6131790;28;82826;-64
2022/07/22 08:47:26;;;;;;;15.52;9.60;;;27.10;61.90;;;;;;6129603;28;82045;-67
2022/07/22 08:50:46;;;;;;;22.23;9.63;;;27.10;61.60;;;;;;6131667;28;80209;-68
2022/07/22 08:54:04;;;;;;;25.23;9.60;;;27.10;61.60;;;;;;6127255;28;85936;-69
2022/07/22 08:57:05;;;;;;;15.70;9.75;;;27.10;61.70;;;;;;6133622;28;83438;-68
2022/07/22 09:00:06;;;;;;;16.67;9.55;;;27.10;61.80;;;;;;6133261;28;82247;-67
2022/07/22 09:03:06;;;;;;;14.93;7.97;;;27.10;61.90;;;;;;6132625;28;81204;-66
2022/07/22 09:06:07;;;;;;;15.30;9.45;;;27.10;61.70;;;;;;6126897;28;80859;-66
2022/07/22 09:09:09;;;;;;;22.38;8.77;;;27.10;61.90;;;;;;6126203;28;83788;-65
2022/07/22 09:12:34;;;;;;;14.85;9.05;;;27.10;61.60;;;;;;6123901;28;82210;-64
2022/07/22 09:15:44;;;;;;;15.52;9.75;;;27.10;61.60;;;;;;6112693;28;83128;-64
2022/07/22 09:19:11;;;;;;;13.45;9.82;;;27.10;61.70;;;;;;6132077;28;80877;-64
2022/07/22 09:22:29;;;;;;;11.88;9.05;;;27.20;61.60;;;;;;6135897;28;83719;-65
2022/07/22 09:25:37;;;;;;;19.80;10.07;;;27.20;61.70;;;;;;6138255;28;81736;-65
2022/07/22 09:28:56;;;;;;;21.00;10.90;;;27.20;61.70;;;;;;6133759;28;82760;-66
2022/07/22 09:32:02;;;;;;;18.15;9.10;;;27.20;61.90;;;;;;6134263;28;82992;-66
2022/07/22 09:35:13;;;;;;;20.08;9.98;;;27.20;61.80;;;;;;6136603;28;85118;-66
2022/07/22 09:38:22;;;;;;;17.45;9.88;;;27.20;61.80;;;;;;6127250;28;83344;-66
2022/07/22 09:41:24;;;;;;;16.40;9.32;;;27.20;61.90;;;;;;6135927;28;84329;-64
2022/07/22 09:44:24;;;;;;;14.52;10.13;;;27.20;62.20;;;;;;6133499;28;81209;-67
2022/07/22 09:47:28;;;;;;;19.92;10.55;;;27.30;62.40;;;;;;6123292;28;83054;-67
2022/07/22 09:50:47;;;;;;;23.92;11.15;;;27.20;62.30;;;;;;6125365;28;82928;-66
2022/07/22 09:54:00;;;;;;;18.50;10.50;;;27.30;62.30;;;;;;6120043;28;83129;-67
2022/07/22 09:57:05;;;;;;;16.50;10.23;;;27.30;62.30;;;;;;6134378;28;87372;-67
2022/07/22 10:00:09;;;;;;;18.08;10.93;;;27.30;62.70;;;;;;6129643;28;85496;-67
2022/07/22 10:03:17;;;;;;;20.55;10.77;;;27.30;62.10;;;;;;6124638;28;85792;-67
2022/07/22 10:06:17;;;;;;;21.23;11.23;;;27.40;62.10;;;;;;6120318;28;85786;-66
2022/07/22 10:09:18;;;;;;;19.05;10.85;;;27.40;62.20;;;;;;6132443;28;83139;-67
2022/07/22 10:12:18;;;;;;;25.55;10.98;;;27.40;62.10;;;;;;6132514;28;85668;-67
2022/07/22 10:15:19;;;;;;;17.88;10.90;;;27.50;62.50;;;;;;6129317;28;85591;-66
2022/07/22 10:18:20;;;;;;;17.02;10.60;;;27.60;62.70;;;;;;6126695;28;85152;-66
2022/07/22 10:21:22;;;;;;;20.25;11.65;;;27.60;62.40;;;;;;6142962;28;85953;-66
2022/07/22 10:24:23;;;;;;;17.23;10.68;;;27.60;62.50;;;;;;6130396;28;84475;-66
2022/07/22 10:27:32;;;;;;;15.63;10.07;;;27.70;62.20;;;;;;6131398;28;85750;-67
2022/07/22 10:30:33;;;;;;;18.95;11.07;;;27.80;61.90;;;;;;6122107;28;82819;-66
2022/07/22 10:33:37;;;;;;;39.85;11.25;;;27.70;61.90;;;;;;6132483;28;82906;-66
2022/07/22 10:36:37;;;;;;;23.95;11.90;;;27.80;62.30;;;;;;6121525;28;84026;-68
2022/07/22 10:39:38;;;;;;;18.55;10.82;;;28.00;62.20;;;;;;6126308;28;85811;-73
2022/07/22 10:42:38;;;;;;;20.55;12.32;;;28.00;62.10;;;;;;6133687;28;83015;-67
2022/07/22 10:45:39;;;;;;;17.20;10.88;;;28.00;62.00;;;;;;6117841;28;83138;-66
2022/07/22 10:48:40;;;;;;;20.30;11.18;;;28.00;62.50;;;;;;6125101;28;83932;-66
2022/07/22 10:51:40;;;;;;;22.27;11.23;;;28.00;62.20;;;;;;6126622;28;83386;-66
2022/07/22 10:54:40;;;;;;;15.45;11.13;;;28.10;62.10;;;;;;6129979;28;84088;-67
2022/07/22 10:57:41;;;;;;;20.98;11.55;;;28.10;61.90;;;;;;6129398;28;83117;-66
2022/07/22 11:00:42;;;;;;;16.85;11.25;;;28.20;61.70;;;;;;6129037;28;83421;-67
2022/07/22 11:03:42;;;;;;;20.48;12.00;;;28.20;62.10;;;;;;6132181;28;82988;-66
2022/07/22 11:06:43;;;;;;;14.75;10.65;;;28.20;61.80;;;;;;6130331;28;84381;-66
2022/07/22 11:09:43;;;;;;;17.13;11.77;;;28.10;61.40;;;;;;6130320;28;83185;-66
2022/07/22 11:12:44;;;;;;;20.00;12.73;;;28.10;61.80;;;;;;6133294;28;82970;-66
2022/07/22 11:15:44;;;;;;;22.83;12.95;;;28.10;62.30;;;;;;6131776;28;84301;-67
2022/07/22 11:18:45;;;;;;;24.27;11.75;;;28.20;62.80;;;;;;6132870;28;82917;-66
2022/07/22 11:21:45;;;;;;;16.00;11.50;;;28.20;62.10;;;;;;6122392;28;83269;-66
2022/07/22 11:24:46;;;;;;;17.45;11.88;;;28.20;62.20;;;;;;6131942;28;82971;-66
2022/07/22 11:27:46;;;;;;;15.52;11.80;;;28.20;61.80;;;;;;6132929;28;83166;-67
2022/07/22 11:30:47;;;;;;;16.63;11.18;;;28.30;62.50;;;;;;6133402;28;83279;-66
2022/07/22 11:33:47;;;;;;;22.95;11.57;;;28.30;62.10;;;;;;6130622;28;83652;-66
2022/07/22 11:36:48;;;;;;;21.48;12.90;;;28.40;62.40;;;;;;6131146;28;83064;-66
2022/07/22 11:39:48;;;;;;;20.23;14.02;;;28.40;62.10;;;;;;6131492;28;82958;-65
2022/07/22 11:42:49;;;;;;;17.25;12.15;;;28.40;61.80;;;;;;6126395;28;84020;-65
2022/07/22 11:45:49;;;;;;;19.73;12.25;;;28.40;61.50;;;;;;6128389;28;83545;-65
2022/07/22 11:48:50;;;;;;;17.70;12.18;;;28.40;61.70;;;;;;6129006;28;83155;-66
2022/07/22 11:51:50;;;;;;;24.73;12.20;;;28.40;61.80;;;;;;6132498;28;83778;-66
2022/07/22 11:54:51;;;;;;;17.67;12.35;;;28.40;62.20;;;;;;6130245;28;84657;-68
2022/07/22 11:57:52;;;;;;;20.70;12.65;;;28.30;61.40;;;;;;6132173;28;84296;-65
2022/07/22 12:00:52;;;;;;;21.48;12.27;;;28.30;62.00;;;;;;6132366;28;83218;-66
2022/07/22 12:03:53;;;;;;;25.77;12.18;;;28.40;62.60;;;;;;6132206;28;82967;-65
2022/07/22 12:06:54;;;;;;;25.60;12.15;;;28.40;62.40;;;;;;6132228;28;83170;-65
2022/07/22 12:09:55;;;;;;;19.30;12.52;;;28.50;62.70;;;;;;6132034;28;83665;-64
2022/07/22 12:12:56;;;;;;;19.60;12.13;;;28.50;63.00;;;;;;6132357;28;83566;-65
2022/07/22 12:15:57;;;;;;;14.82;12.02;;;28.40;62.60;;;;;;6132131;28;83113;-65
2022/07/22 12:18:57;;;;;;;19.13;11.60;;;28.40;62.30;;;;;;6131906;28;84096;-65
2022/07/22 12:21:58;;;;;;;19.08;12.38;;;28.30;62.30;;;;;;6133785;28;83046;-66
2022/07/22 12:24:59;;;;;;;18.17;12.65;;;28.30;63.00;;;;;;6129561;28;83005;-65
2022/07/22 12:27:59;;;;;;;17.88;11.95;;;28.40;62.40;;;;;;6129735;28;83578;-65
2022/07/22 12:31:00;;;;;;;19.55;13.07;;;28.60;62.00;;;;;;6130878;28;83304;-65
2022/07/22 12:34:00;;;;;;;23.48;13.10;;;28.50;61.70;;;;;;6130608;28;83982;-65
2022/07/22 12:37:02;;;;;;;17.17;11.18;;;28.40;61.90;;;;;;6121452;28;82717;-65
2022/07/22 12:40:03;;;;;;;20.90;12.77;;;28.40;62.40;;;;;;6133808;28;83012;-65
2022/07/22 12:43:04;;;;;;;17.02;12.05;;;28.50;62.20;;;;;;6130452;28;84278;-65
2022/07/22 12:46:04;;;;;;;21.55;12.35;;;28.50;61.90;;;;;;6123426;28;83147;-65
2022/07/22 12:49:05;;;;;;;19.42;11.30;;;28.50;61.60;;;;;;6128198;28;83149;-65
2022/07/22 12:52:06;;;;;;;26.40;13.10;;;28.40;61.70;;;;;;6141725;28;83154;-65
2022/07/22 12:55:07;;;;;;;17.88;12.57;;;28.50;62.50;;;;;;6132801;28;83239;-64
2022/07/22 12:58:07;;;;;;;15.07;11.43;;;28.60;62.50;;;;;;6136397;28;83679;-65
2022/07/22 13:01:08;;;;;;;18.63;12.52;;;28.50;62.30;;;;;;6134964;28;82944;-67
2022/07/22 13:04:08;;;;;;;17.88;13.10;;;28.50;62.30;;;;;;6127612;28;84167;-66
2022/07/22 13:07:09;;;;;;;20.13;12.50;;;28.30;60.00;;;;;;6123703;28;83501;-65
2022/07/22 13:10:09;;;;;;;17.02;11.95;;;27.90;58.30;;;;;;6127423;28;83468;-66
2022/07/22 13:13:10;;;;;;;17.77;11.80;;;27.50;57.00;;;;;;6132666;28;84320;-66
2022/07/22 13:16:11;;;;;;;17.02;11.73;;;27.30;56.50;;;;;;6130724;28;84184;-66
2022/07/22 13:19:11;;;;;;;20.45;11.60;;;27.00;56.00;;;;;;6133993;28;83288;-67
2022/07/22 13:22:12;;;;;;;18.83;11.70;;;26.70;58.80;;;;;;6127962;28;84656;-71
2022/07/22 13:25:12;;;;;;;20.67;12.75;;;27.00;60.40;;;;;;6135411;28;84321;-66
2022/07/22 13:28:12;;;;;;;22.50;12.60;;;27.10;60.90;;;;;;6135393;28;83548;-66
2022/07/22 13:31:13;;;;;;;16.20;10.98;;;27.10;62.90;;;;;;6136943;28;83167;-68
2022/07/22 13:34:13;;;;;;;16.40;11.30;;;27.10;62.20;;;;;;6130200;28;83107;-74
2022/07/22 13:37:14;;;;;;;18.27;12.00;;;27.20;62.30;;;;;;6141017;28;83403;-69
2022/07/22 13:40:14;;;;;;;17.60;11.18;;;27.30;62.70;;;;;;6113882;28;86109;-70
2022/07/22 13:43:15;;;;;;;19.77;12.30;;;27.40;62.70;;;;;;6134615;28;83400;-68
2022/07/22 13:46:15;;;;;;;16.83;11.30;;;27.50;63.10;;;;;;6135042;28;82843;-71
2022/07/22 13:49:16;;;;;;;18.17;11.73;;;27.60;63.10;;;;;;6134767;28;89917;-68
2022/07/22 13:52:18;;;;;;;17.65;10.55;;;27.60;62.80;;;;;;6129112;28;82905;-66
2022/07/22 13:55:19;;;;;;;17.27;11.30;;;27.60;63.50;;;;;;6129292;28;82900;-68
2022/07/22 13:58:19;;;;;;;16.63;10.88;;;27.80;63.20;;;;;;6134936;28;83367;-66
2022/07/22 14:01:20;;;;;;;19.60;11.02;;;28.00;62.90;;;;;;6120686;28;83013;-67
2022/07/22 14:04:20;;;;;;;20.23;10.88;;;28.10;62.70;;;;;;6132282;28;84328;-68
2022/07/22 14:07:21;;;;;;;15.95;11.02;;;28.20;62.30;;;;;;6125697;28;83176;-67
2022/07/22 14:10:21;;;;;;;16.52;11.40;;;28.30;62.50;;;;;;6129965;28;83439;-67
2022/07/22 14:13:22;;;;;;;17.40;10.82;;;28.30;62.90;;;;;;6130666;28;83233;-67
2022/07/22 14:16:35;;;;;;;14.52;10.30;;;28.40;61.50;;;;;;6128655;28;83576;-67
2022/07/22 14:19:35;;;;;;;15.45;10.15;;;28.50;61.70;;;;;;6128117;28;83641;-68
2022/07/22 14:22:36;;;;;;;17.00;10.25;;;28.50;62.20;;;;;;6133839;28;82932;-68
2022/07/22 14:25:36;;;;;;;13.50;9.77;;;28.60;62.80;;;;;;6132327;28;84059;-67
2022/07/22 14:28:37;;;;;;;13.52;9.93;;;28.60;62.60;;;;;;6133671;28;82898;-67
2022/07/22 14:31:37;;;;;;;13.45;10.25;;;28.60;63.00;;;;;;6137247;28;80387;-67
2022/07/22 14:34:38;;;;;;;19.38;11.13;;;28.60;62.80;;;;;;6133477;28;83075;-67
2022/07/22 14:37:38;;;;;;;17.98;11.02;;;28.50;62.50;;;;;;6127525;28;83187;-67
2022/07/22 14:40:39;;;;;;;14.98;10.18;;;28.50;62.90;;;;;;6130215;28;83259;-68
2022/07/22 14:43:39;;;;;;;15.40;10.82;;;28.50;62.90;;;;;;6124137;28;84728;-67
2022/07/22 14:46:40;;;;;;;17.92;11.35;;;28.50;63.70;;;;;;6124194;28;83082;-67
2022/07/22 14:49:40;;;;;;;14.05;10.20;;;28.50;63.70;;;;;;6125373;28;83693;-66
2022/07/22 14:52:41;;;;;;;15.95;10.32;;;28.50;63.00;;;;;;6130936;28;83044;-66
2022/07/22 14:55:42;;;;;;;19.38;10.80;;;28.60;63.20;;;;;;6128437;28;84589;-65
2022/07/22 14:58:42;;;;;;;16.85;9.93;;;28.60;62.60;;;;;;6131729;28;83246;-64
2022/07/22 15:01:43;;;;;;;18.33;10.13;;;28.70;63.40;;;;;;6136556;28;82860;-67
2022/07/22 15:04:43;;;;;;;25.90;11.20;;;28.60;63.60;;;;;;6133714;28;83091;-74
2022/07/22 15:07:44;;;;;;;17.73;9.20;;;28.60;63.20;;;;;;6132865;28;83650;-67
2022/07/22 15:10:44;;;;;;;15.15;10.52;;;28.60;61.00;;;;;;6125492;28;82864;-65
2022/07/22 15:13:45;;;;;;;21.77;10.48;;;28.70;61.00;;;;;;6132568;28;83219;-67
2022/07/22 15:16:45;;;;;;;18.52;9.35;;;28.70;61.60;;;;;;6132854;28;83175;-66
2022/07/22 15:19:45;;;;;;;13.23;9.55;;;28.70;61.40;;;;;;6133747;28;84127;-66
2022/07/22 15:22:46;;;;;;;13.63;9.65;;;28.70;61.00;;;;;;6136132;28;81470;-67
2022/07/22 15:25:46;;;;;;;16.98;10.00;;;28.80;59.90;;;;;;6135958;28;80568;-67
2022/07/22 15:28:47;;;;;;;18.95;10.02;;;28.90;60.70;;;;;;6129705;28;83113;-67
2022/07/22 15:31:48;;;;;;;16.58;9.30;;;28.90;59.50;;;;;;6131603;28;83024;-67
2022/07/22 15:34:48;;;;;;;15.38;10.20;;;28.90;59.50;;;;;;6135971;28;83397;-70